Fremont, MI

5:31 AM EST on December 16, 2019 (GMT -0500)
Fremont

Weather History for KFFX - October, 2019

Change the Weather History Date:

Thursday, October 31, 2019

  Actual Average (KMKG) Record (KMKG)
Temperature  
Mean Temperature 36 °F -  
Max Temperature 38 °F 56 °F 74 °F (1935)
Min Temperature 33 °F 39 °F 22 °F (1930)
Degree Days  
Heating Degree Days 30    
Moisture  
Dew Point 36 °F    
Average Humidity 100    
Maximum Humidity 100    
Minimum Humidity 95    
Precipitation  
Precipitation 0.00 in - - ()
Sea Level Pressure  
Sea Level Pressure 29.80 in    
Wind  
Wind Speed 10 mph ()    
Max Wind Speed 18 mph    
Max Gust Speed 29 mph    
Visibility 6.1 miles    
Events Rain , Snow    
Averages and records for this station are not official NWS values.
T = Trace of Precipitation, MM = Missing Value Source: Averaged Metar Reports

Daily Weather History Graph

Daily Weather History Graph

Search for Another Location

Airport or City:

Astronomy

Oct. 31, 2019 Rise Set
Actual Time 8:17 AM EDT 6:36 PM EDT
Civil Twilight 7:48 AM EDT 7:06 PM EDT
Nautical Twilight 7:14 AM EDT 7:40 PM EDT
Astronomical Twilight 6:41 AM EDT 8:13 PM EDT
Moon 12:10 PM EDT (10/31) 9:27 PM EDT (10/31)
Length of Visible Light 11h 18m
Length of Day
10h 19m
Waxing Crescent, 15% of the Moon is Illuminated
Oct 31
Waxing Crescent
Nov 4
First Quarter
Nov 12
Full
Nov 19
Last Quarter
Nov 26
New

Hourly Weather History & Observations

Time (EDT) Temp. Windchill Dew Point Humidity Pressure Visibility Wind Dir Wind Speed Gust Speed Precip Events Conditions
12:15 AM 38.7 °F 31.4 °F 38.7 °F 100% 29.95 in 4.0 mi North 11.5 mph 17.3 mph N/A   Light Drizzle
12:35 AM 38.7 °F 31.8 °F 38.7 °F 100% 29.95 in 5.0 mi NNE 10.4 mph 17.3 mph N/A   Light Drizzle
12:40 AM 38.7 °F 31.8 °F 38.7 °F 100% 29.95 in 5.0 mi North 10.4 mph 17.3 mph N/A   Light Drizzle
12:58 AM 38.8 °F 32.6 °F 38.8 °F 100% 29.94 in 5.0 mi NNE 9.2 mph - N/A   Light Drizzle
1:16 AM 38.8 °F 32.6 °F 38.8 °F 100% 29.94 in 4.0 mi North 9.2 mph - N/A   Drizzle
1:35 AM 38.8 °F 34.6 °F 38.8 °F 100% 29.93 in 4.0 mi North 5.8 mph - N/A   Drizzle
1:55 AM 38.8 °F 33.2 °F 38.8 °F 100% 29.92 in 5.0 mi North 8.1 mph - N/A   Drizzle
1:56 AM 38.8 °F 32.6 °F 38.8 °F 100% 29.92 in 5.0 mi North 9.2 mph - N/A   Drizzle
2:19 AM 38.7 °F 32.9 °F 38.7 °F 100% 29.89 in 5.0 mi North 8.1 mph - N/A   Drizzle
2:37 AM 38.7 °F 33.6 °F 38.7 °F 100% 29.90 in 5.0 mi North 6.9 mph - N/A   Light Drizzle
2:55 AM 38.7 °F 32.9 °F 38.7 °F 100% 29.89 in 7.0 mi North 8.1 mph - N/A Rain Light Rain
3:15 AM 38.3 °F 31.9 °F 38.3 °F 100% 29.87 in 4.0 mi NNE 9.2 mph - N/A Rain Light Rain
3:35 AM 38.1 °F 32.3 °F 38.1 °F 100% 29.86 in 4.0 mi NNE 8.1 mph - N/A Rain Light Rain
3:58 AM 37.4 °F 29.8 °F 37.4 °F 100% 29.83 in 5.0 mi NNE 11.5 mph 17.3 mph N/A Rain Light Rain
4:15 AM 37.4 °F 29.8 °F 37.4 °F 100% 29.83 in 5.0 mi North 11.5 mph - N/A Rain Light Rain
4:35 AM 36.9 °F 29.1 °F 36.9 °F 100% 29.84 in 7.0 mi North 11.5 mph - N/A Rain Rain
4:55 AM 36.5 °F 30.3 °F 36.5 °F 100% 29.83 in 7.0 mi NNE 8.1 mph - N/A Rain Light Rain
5:19 AM 36.3 °F 29.5 °F 36.3 °F 100% 29.83 in 7.0 mi North 9.2 mph 17.3 mph N/A Snow Light Snow
5:37 AM 35.6 °F 27.1 °F 35.6 °F 100% 29.81 in 5.0 mi North 12.7 mph 16.1 mph N/A Snow Light Snow
5:55 AM 35.2 °F 28.1 °F 35.2 °F 100% 29.84 in 10.0 mi North 9.2 mph 16.1 mph N/A Snow Light Snow
6:15 AM 35.2 °F 28.1 °F 35.2 °F 100% 29.83 in 5.0 mi North 9.2 mph - N/A   Light Drizzle
6:16 AM 35.2 °F 27.6 °F 35.2 °F 100% 29.83 in 5.0 mi North 10.4 mph - N/A   Light Drizzle
6:35 AM 34.9 °F 27.7 °F 34.9 °F 100% 29.82 in 7.0 mi NNE 9.2 mph - N/A Snow Light Snow
6:40 AM 34.9 °F 28.3 °F 34.9 °F 100% 29.82 in 5.0 mi NNE 8.1 mph - N/A Snow Light Snow
6:57 AM 34.7 °F 26.9 °F 34.7 °F 100% 29.82 in 5.0 mi NNE 10.4 mph - N/A Snow Light Snow
7:16 AM 34.3 °F 27.0 °F 34.3 °F 100% 29.81 in 2.5 mi North 9.2 mph - N/A Snow Light Snow
7:35 AM 34.2 °F 28.2 °F 34.2 °F 100% 29.80 in 4.0 mi NNE 6.9 mph - N/A Snow Light Snow
7:55 AM 34.7 °F 28.1 °F 34.7 °F 100% 29.79 in 7.0 mi NNE 8.1 mph - N/A Snow Light Snow
8:19 AM 34.7 °F 28.1 °F 34.7 °F 100% 29.78 in 5.0 mi NNE 8.1 mph - N/A Snow Light Snow
8:37 AM 34.7 °F 26.9 °F 34.7 °F 100% 29.78 in 7.0 mi NNE 10.4 mph - N/A Snow Light Snow
8:55 AM 34.7 °F 27.5 °F 34.7 °F 100% 29.76 in 4.0 mi NNE 9.2 mph 16.1 mph N/A Snow Light Snow
8:56 AM 34.7 °F 27.5 °F 34.7 °F 100% 29.76 in 3.0 mi NNE 9.2 mph 16.1 mph N/A Snow Light Snow
9:15 AM 34.7 °F 27.5 °F 34.7 °F 100% 29.76 in 10.0 mi NNE 9.2 mph - N/A   Overcast
9:35 AM 34.9 °F 27.7 °F 34.9 °F 100% 29.75 in 10.0 mi NNE 9.2 mph - N/A   Overcast
9:58 AM 35.2 °F 28.8 °F 35.2 °F 100% 29.74 in 10.0 mi NNE 8.1 mph 16.1 mph N/A Rain Light Rain
10:16 AM 35.2 °F 29.5 °F 35.2 °F 100% 29.74 in 10.0 mi NNE 6.9 mph 17.3 mph N/A Rain Rain
10:35 AM 35.2 °F 28.8 °F 35.2 °F 100% 29.74 in 7.0 mi North 8.1 mph - N/A Rain Light Rain
10:55 AM 35.1 °F 27.9 °F 35.1 °F 100% 29.73 in 5.0 mi NNE 9.2 mph - N/A Rain Light Rain
10:56 AM 35.1 °F 28.6 °F 35.1 °F 100% 29.73 in 5.0 mi NNE 8.1 mph - N/A Rain Light Rain
11:19 AM 35.1 °F 27.9 °F 35.1 °F 100% 29.72 in 5.0 mi NNE 9.2 mph - N/A Rain Light Rain
11:37 AM 35.6 °F 28.6 °F 35.6 °F 100% 29.72 in 7.0 mi NNE 9.2 mph 17.3 mph N/A   Overcast
11:55 AM 35.6 °F 28.6 °F 35.6 °F 100% 29.70 in 7.0 mi NNE 9.2 mph - N/A Rain Light Rain
12:15 PM 35.8 °F 26.9 °F 35.8 °F 100% 29.70 in 7.0 mi North 13.8 mph - N/A Rain Light Rain
12:35 PM 35.8 °F 28.8 °F 35.8 °F 100% 29.70 in 10.0 mi North 9.2 mph - N/A Rain Rain
12:39 PM 35.8 °F 28.3 °F 35.8 °F 100% 29.70 in 10.0 mi North 10.4 mph 16.1 mph N/A   Light Drizzle
12:58 PM 35.6 °F 28.0 °F 35.6 °F 100% 29.68 in 10.0 mi North 10.4 mph 16.1 mph N/A Rain Light Rain
1:16 PM 35.2 °F 27.6 °F 35.2 °F 100% 29.67 in 5.0 mi North 10.4 mph - N/A Snow Light Snow
1:35 PM 35.6 °F 28.0 °F 35.6 °F 100% 29.66 in 7.0 mi North 10.4 mph - N/A Snow Light Snow
1:55 PM 35.8 °F 26.9 °F 35.8 °F 100% 29.65 in 7.0 mi North 13.8 mph - N/A Snow Light Snow
1:56 PM 35.8 °F 26.5 °F 35.8 °F 100% 29.65 in 7.0 mi North 15.0 mph - N/A Snow Light Snow
2:19 PM 36.1 °F 28.7 °F 36.1 °F 100% 29.65 in 5.0 mi North 10.4 mph 16.1 mph N/A   Overcast
2:37 PM 36.1 °F 28.7 °F 36.1 °F 100% 29.66 in 3.0 mi North 10.4 mph 16.1 mph N/A Snow Light Snow
2:55 PM 36.5 °F 29.2 °F 36.5 °F 100% 29.65 in 3.0 mi North 10.4 mph 17.3 mph N/A Rain Light Rain
3:15 PM 37.2 °F 28.7 °F 37.2 °F 100% 29.66 in 7.0 mi NNW 13.8 mph 17.3 mph N/A   Drizzle
3:35 PM 37.4 °F 28.5 °F 37.4 °F 100% 29.68 in 10.0 mi NNW 15.0 mph - N/A Rain Light Rain
3:58 PM 36.7 °F 26.9 °F 36.7 °F 100% 29.69 in 3.0 mi NNW 17.3 mph 21.9 mph N/A Rain Light Rain
4:16 PM 36.5 °F 27.8 °F 36.5 °F 100% 29.70 in 4.0 mi NNW 13.8 mph 17.3 mph N/A   Overcast
4:35 PM 35.6 °F 27.5 °F 35.6 °F 100% 29.70 in 3.0 mi NNW 11.5 mph 20.7 mph N/A Snow Light Snow
4:36 PM 35.4 °F 26.8 °F 35.4 °F 100% 29.70 in 3.0 mi NNW 12.7 mph - N/A Snow Light Snow
4:55 PM 35.1 °F 24.8 °F 35.1 °F 100% 29.71 in 2.0 mi NNW 17.3 mph 25.3 mph N/A Snow Light Snow
5:19 PM 34.7 °F 24.0 °F 34.7 °F 100% 29.72 in 2.0 mi NNW 18.4 mph 24.2 mph N/A Snow Light Snow
5:37 PM 34.7 °F 24.7 °F 34.7 °F 100% 29.73 in 1.5 mi NNW 16.1 mph 26.5 mph N/A Snow Light Snow
5:55 PM 34.7 °F 24.7 °F 34.7 °F 100% 29.74 in 4.0 mi NNW 16.1 mph - N/A Snow Light Snow
5:56 PM 34.7 °F 25.1 °F 34.7 °F 100% 29.74 in 4.0 mi NNW 15.0 mph 18.4 mph N/A Snow Light Snow
6:15 PM 35.6 °F 26.6 °F 35.6 °F 100% 29.75 in 10.0 mi NNW 13.8 mph 25.3 mph N/A Rain Light Rain
6:16 PM 35.6 °F 26.2 °F 35.6 °F 100% 29.75 in 10.0 mi NNW 15.0 mph 25.3 mph N/A Rain Light Rain
6:35 PM 35.6 °F 25.5 °F 35.6 °F 100% 29.76 in 10.0 mi NNW 17.3 mph 24.2 mph N/A Snow Light Snow
6:40 PM 35.4 °F 26.4 °F 35.4 °F 100% 29.76 in 10.0 mi NNW 13.8 mph 24.2 mph N/A Snow Light Snow
6:58 PM 34.7 °F 26.4 °F 34.7 °F 100% 29.78 in 3.0 mi NNW 11.5 mph 21.9 mph N/A Snow Light Snow
7:16 PM 34.5 °F 25.3 °F 34.5 °F 100% 29.79 in 3.0 mi NNW 13.8 mph 21.9 mph N/A Snow Light Snow
7:35 PM 34.3 °F 25.0 °F 34.3 °F 100% 29.80 in 4.0 mi NW 13.8 mph 19.6 mph N/A Snow Light Snow
7:55 PM 34.5 °F 24.5 °F 34.5 °F 100% 29.81 in 4.0 mi NW 16.1 mph 25.3 mph N/A Snow Light Snow
7:56 PM 34.5 °F 23.8 °F 34.5 °F 100% 29.81 in 4.0 mi NW 18.4 mph 25.3 mph N/A Snow Light Snow
8:19 PM 34.5 °F 24.5 °F 34.5 °F 100% 29.83 in 5.0 mi NW 16.1 mph 20.7 mph N/A Snow Light Snow
8:37 PM 34.7 °F 24.3 °F 34.7 °F 100% 29.84 in 5.0 mi NW 17.3 mph 26.5 mph N/A Snow Light Snow
8:55 PM 34.7 °F 24.3 °F 34.7 °F 100% 29.86 in 10.0 mi NW 17.3 mph 24.2 mph N/A Snow Light Snow
8:56 PM 34.7 °F 24.3 °F 34.7 °F 100% 29.86 in 10.0 mi NW 17.3 mph 24.2 mph N/A Snow Light Snow
9:15 PM 34.2 °F 23.6 °F 34.2 °F 100% 29.88 in 2.5 mi NW 17.3 mph 28.8 mph N/A Snow Light Snow
9:35 PM 34.2 °F 24.0 °F 34.2 °F 100% 29.89 in 2.5 mi WNW 16.1 mph 23.0 mph N/A Snow Light Snow
9:58 PM 33.8 °F 23.9 °F 33.8 °F 100% 29.91 in 5.0 mi NW 15.0 mph 26.5 mph N/A Snow Light Snow
10:16 PM 33.8 °F 24.8 °F 33.8 °F 100% 29.92 in 10.0 mi WNW 12.7 mph 18.4 mph N/A Snow Light Snow
10:35 PM 34.0 °F 24.6 °F 34.0 °F 100% 29.93 in 10.0 mi WNW 13.8 mph 18.4 mph N/A   Overcast
10:36 PM 34.0 °F 25.0 °F 34.0 °F 100% 29.93 in 10.0 mi WNW 12.7 mph 18.4 mph N/A   Overcast
10:55 PM 34.2 °F 27.5 °F 34.2 °F 100% 29.94 in 10.0 mi WNW 8.1 mph - N/A   Overcast
11:19 PM 34.0 °F 27.2 °F 34.0 °F 100% 29.95 in 10.0 mi West 8.1 mph - N/A   Overcast
11:37 PM 34.0 °F 27.2 °F 33.8 °F 99% 29.95 in 10.0 mi West 8.1 mph - N/A   Overcast
11:55 PM 33.8 °F 24.8 °F 32.7 °F 96% 29.96 in 10.0 mi West 12.7 mph 17.3 mph N/A   Overcast
11:56 PM 33.8 °F 25.3 °F 32.5 °F 95% 29.96 in 10.0 mi WNW 11.5 mph 17.3 mph N/A   Overcast